sensor_id;sensor_type;location;lat;lon;timestamp;noise_LAeq;noise_LA_min;noise_LA_max;noise_LA01;noise_LA95
66452;Laerm;56831;52.380;4.744;2022-07-24T00:00:06;36.99;34.73;39.13;;
66452;Laerm;56831;52.380;4.744;2022-07-24T00:00:17;38.17;35.35;40.77;;
66452;Laerm;56831;52.380;4.744;2022-07-24T00:00:28;37.75;34.82;39.99;;
66452;Laerm;56831;52.380;4.744;2022-07-24T00:00:38;39.33;36.04;42.71;;
66452;Laerm;56831;52.380;4.744;2022-07-24T00:00:49;37.66;34.66;41.49;;
66452;Laerm;56831;52.380;4.744;2022-07-24T00:00:59;37.32;34.63;39.24;;
66452;Laerm;56831;52.380;4.744;2022-07-24T00:01:10;37.63;34.39;39.45;;
66452;Laerm;56831;52.380;4.744;2022-07-24T00:01:20;37.41;35.19;38.87;;
66452;Laerm;56831;52.380;4.744;2022-07-24T00:01:30;37.14;35.20;39.63;;
66452;Laerm;56831;52.380;4.744;2022-07-24T00:01:41;37.08;34.74;38.59;;
66452;Laerm;56831;52.380;4.744;2022-07-24T00:01:51;37.02;34.87;39.09;;
66452;Laerm;56831;52.380;4.744;2022-07-24T00:02:02;36.75;34.61;38.38;;
66452;Laerm;56831;52.380;4.744;2022-07-24T00:02:12;36.94;34.58;38.68;;
66452;Laerm;56831;52.380;4.744;2022-07-24T00:02:23;36.96;34.81;38.92;;
66452;Laerm;56831;52.380;4.744;2022-07-24T00:02:33;36.89;33.79;38.34;;
66452;Laerm;56831;52.380;4.744;2022-07-24T00:02:43;37.08;34.99;38.60;;
66452;Laerm;56831;52.380;4.744;2022-07-24T00:02:54;37.04;34.63;39.06;;
66452;Laerm;56831;52.380;4.744;2022-07-24T00:03:04;36.93;34.80;38.64;;
66452;Laerm;56831;52.380;4.744;2022-07-24T00:03:14;36.90;34.11;38.76;;
66452;Laerm;56831;52.380;4.744;2022-07-24T00:03:25;37.65;35.29;48.05;;
66452;Laerm;56831;52.380;4.744;2022-07-24T00:03:36;37.17;34.48;41.13;;
66452;Laerm;56831;52.380;4.744;2022-07-24T00:03:46;37.72;34.46;43.09;;
66452;Laerm;56831;52.380;4.744;2022-07-24T00:03:57;37.75;35.65;39.97;;
66452;Laerm;56831;52.380;4.744;2022-07-24T00:04:07;38.26;35.56;40.82;;
66452;Laerm;56831;52.380;4.744;2022-07-24T00:04:18;37.62;35.34;39.66;;
66452;Laerm;56831;52.380;4.744;2022-07-24T00:04:28;37.69;35.03;39.43;;
66452;Laerm;56831;52.380;4.744;2022-07-24T00:04:39;37.67;35.14;42.66;;
66452;Laerm;56831;52.380;4.744;2022-07-24T00:04:49;37.57;35.36;39.33;;
66452;Laerm;56831;52.380;4.744;2022-07-24T00:04:59;37.84;35.64;39.68;;
66452;Laerm;56831;52.380;4.744;2022-07-24T00:05:11;37.95;35.11;40.11;;
66452;Laerm;56831;52.380;4.744;2022-07-24T00:05:21;37.12;34.68;38.90;;
66452;Laerm;56831;52.380;4.744;2022-07-24T00:05:32;37.48;34.48;39.24;;
66452;Laerm;56831;52.380;4.744;2022-07-24T00:05:42;37.94;35.11;40.15;;
66452;Laerm;56831;52.380;4.744;2022-07-24T00:05:53;37.86;35.21;41.50;;
66452;Laerm;56831;52.380;4.744;2022-07-24T00:06:03;37.66;35.68;39.65;;
66452;Laerm;56831;52.380;4.744;2022-07-24T00:06:13;37.75;35.42;39.39;;
66452;Laerm;56831;52.380;4.744;2022-07-24T00:06:24;37.38;35.42;39.15;;
66452;Laerm;56831;52.380;4.744;2022-07-24T00:06:34;37.00;34.63;38.81;;
66452;Laerm;56831;52.380;4.744;2022-07-24T00:06:45;36.75;34.70;38.62;;
66452;Laerm;56831;52.380;4.744;2022-07-24T00:06:55;37.02;34.62;38.84;;
66452;Laerm;56831;52.380;4.744;2022-07-24T00:07:05;37.17;34.99;39.46;;
66452;Laerm;56831;52.380;4.744;2022-07-24T00:07:16;37.38;34.93;39.43;;
66452;Laerm;56831;52.380;4.744;2022-07-24T00:07:26;37.75;35.84;40.00;;
66452;Laerm;56831;52.380;4.744;2022-07-24T00:07:37;38.30;35.41;42.91;;
66452;Laerm;56831;52.380;4.744;2022-07-24T00:07:47;37.20;35.06;39.66;;
66452;Laerm;56831;52.380;4.744;2022-07-24T00:07:57;37.01;35.03;38.54;;
66452;Laerm;56831;52.380;4.744;2022-07-24T00:08:08;37.46;34.50;39.45;;
66452;Laerm;56831;52.380;4.744;2022-07-24T00:08:18;37.67;34.79;39.98;;
66452;Laerm;56831;52.380;4.744;2022-07-24T00:08:28;37.86;35.75;39.58;;
66452;Laerm;56831;52.380;4.744;2022-07-24T00:08:39;37.67;35.62;40.18;;
66452;Laerm;56831;52.380;4.744;2022-07-24T00:08:50;37.99;35.95;40.22;;
66452;Laerm;56831;52.380;4.744;2022-07-24T00:09:01;37.63;35.64;39.43;;
66452;Laerm;56831;52.380;4.744;2022-07-24T00:09:11;37.21;35.10;38.89;;
66452;Laerm;56831;52.380;4.744;2022-07-24T00:09:22;37.00;34.79;39.03;;
66452;Laerm;56831;52.380;4.744;2022-07-24T00:09:32;36.97;34.81;38.67;;
66452;Laerm;56831;52.380;4.744;2022-07-24T00:09:42;37.52;35.64;39.35;;
66452;Laerm;56831;52.380;4.744;2022-07-24T00:09:53;37.59;35.41;39.79;;
66452;Laerm;56831;52.380;4.744;2022-07-24T00:10:04;37.33;34.85;38.98;;
66452;Laerm;56831;52.380;4.744;2022-07-24T00:10:14;37.40;34.56;40.64;;
66452;Laerm;56831;52.380;4.744;2022-07-24T00:10:25;36.90;34.58;38.53;;
66452;Laerm;56831;52.380;4.744;2022-07-24T00:10:36;36.86;34.82;38.76;;
66452;Laerm;56831;52.380;4.744;2022-07-24T00:10:46;36.96;34.57;38.46;;
66452;Laerm;56831;52.380;4.744;2022-07-24T00:10:56;37.08;34.65;40.36;;
66452;Laerm;56831;52.380;4.744;2022-07-24T00:11:07;37.18;35.06;39.01;;
66452;Laerm;56831;52.380;4.744;2022-07-24T00:11:17;36.76;34.60;38.89;;
66452;Laerm;56831;52.380;4.744;2022-07-24T00:11:28;36.85;34.55;38.40;;
66452;Laerm;56831;52.380;4.744;2022-07-24T00:11:38;36.94;34.93;38.65;;
66452;Laerm;56831;52.380;4.744;2022-07-24T00:11:49;36.94;34.44;38.74;;
66452;Laerm;56831;52.380;4.744;2022-07-24T00:11:59;36.93;34.74;38.99;;
66452;Laerm;56831;52.380;4.744;2022-07-24T00:12:10;37.01;34.18;39.17;;
66452;Laerm;56831;52.380;4.744;2022-07-24T00:12:20;37.94;35.55;40.99;;
66452;Laerm;56831;52.380;4.744;2022-07-24T00:12:31;38.08;35.19;40.07;;
66452;Laerm;56831;52.380;4.744;2022-07-24T00:12:41;38.66;35.01;42.36;;
66452;Laerm;56831;52.380;4.744;2022-07-24T00:12:52;43.06;38.50;51.76;;
66452;Laerm;56831;52.380;4.744;2022-07-24T00:13:02;42.96;39.56;47.79;;
66452;Laerm;56831;52.380;4.744;2022-07-24T00:13:13;40.08;36.85;43.26;;
66452;Laerm;56831;52.380;4.744;2022-07-24T00:13:23;38.39;35.72;41.68;;
66452;Laerm;56831;52.380;4.744;2022-07-24T00:13:34;38.30;35.29;42.31;;
66452;Laerm;56831;52.380;4.744;2022-07-24T00:13:44;37.21;34.36;39.53;;
66452;Laerm;56831;52.380;4.744;2022-07-24T00:13:54;37.38;34.77;39.99;;
66452;Laerm;56831;52.380;4.744;2022-07-24T00:14:05;38.21;35.31;41.24;;
66452;Laerm;56831;52.380;4.744;2022-07-24T00:14:15;36.81;34.14;38.53;;
66452;Laerm;56831;52.380;4.744;2022-07-24T00:14:26;37.32;34.61;39.08;;
66452;Laerm;56831;52.380;4.744;2022-07-24T00:14:36;37.31;34.85;39.39;;
66452;Laerm;56831;52.380;4.744;2022-07-24T00:14:47;38.43;35.63;41.52;;
66452;Laerm;56831;52.380;4.744;2022-07-24T00:14:57;38.68;36.52;42.77;;
66452;Laerm;56831;52.380;4.744;2022-07-24T00:15:08;39.43;36.18;44.51;;
66452;Laerm;56831;52.380;4.744;2022-07-24T00:15:18;39.83;35.14;46.15;;
66452;Laerm;56831;52.380;4.744;2022-07-24T00:15:29;37.75;34.58;41.82;;
66452;Laerm;56831;52.380;4.744;2022-07-24T00:15:40;37.34;35.07;39.31;;
66452;Laerm;56831;52.380;4.744;2022-07-24T00:15:51;37.29;34.85;39.08;;
66452;Laerm;56831;52.380;4.744;2022-07-24T00:16:01;37.58;35.45;39.47;;
66452;Laerm;56831;52.380;4.744;2022-07-24T00:16:11;38.19;36.07;40.10;;
66452;Laerm;56831;52.380;4.744;2022-07-24T00:16:22;39.95;37.28;42.34;;
66452;Laerm;56831;52.380;4.744;2022-07-24T00:16:32;38.74;36.11;42.00;;
66452;Laerm;56831;52.380;4.744;2022-07-24T00:16:43;41.21;36.98;47.55;;
66452;Laerm;56831;52.380;4.744;2022-07-24T00:16:53;41.78;38.51;44.97;;
66452;Laerm;56831;52.380;4.744;2022-07-24T00:17:04;42.27;38.98;45.75;;
66452;Laerm;56831;52.380;4.744;2022-07-24T00:17:14;38.74;36.40;42.33;;
66452;Laerm;56831;52.380;4.744;2022-07-24T00:17:24;38.59;36.49;41.07;;
66452;Laerm;56831;52.380;4.744;2022-07-24T00:17:35;38.81;36.22;41.75;;
66452;Laerm;56831;52.380;4.744;2022-07-24T00:17:45;38.00;36.00;40.06;;
66452;Laerm;56831;52.380;4.744;2022-07-24T00:17:55;37.81;35.73;41.01;;
66452;Laerm;56831;52.380;4.744;2022-07-24T00:18:06;37.71;35.91;39.54;;
66452;Laerm;56831;52.380;4.744;2022-07-24T00:18:17;37.40;34.87;39.18;;
66452;Laerm;56831;52.380;4.744;2022-07-24T00:18:27;37.12;35.07;38.67;;
66452;Laerm;56831;52.380;4.744;2022-07-24T00:18:38;37.22;35.32;39.10;;
66452;Laerm;56831;52.380;4.744;2022-07-24T00:18:48;37.46;35.69;39.35;;
66452;Laerm;56831;52.380;4.744;2022-07-24T00:18:59;37.98;35.59;44.74;;
66452;Laerm;56831;52.380;4.744;2022-07-24T00:19:09;38.06;36.11;40.06;;
66452;Laerm;56831;52.380;4.744;2022-07-24T00:19:20;38.49;35.91;42.44;;
66452;Laerm;56831;52.380;4.744;2022-07-24T00:19:30;41.18;37.19;45.38;;
66452;Laerm;56831;52.380;4.744;2022-07-24T00:19:40;41.16;38.57;45.38;;
66452;Laerm;56831;52.380;4.744;2022-07-24T00:19:51;40.48;36.14;44.43;;
66452;Laerm;56831;52.380;4.744;2022-07-24T00:20:02;37.86;35.50;39.40;;
66452;Laerm;56831;52.380;4.744;2022-07-24T00:20:13;37.78;34.64;40.44;;
66452;Laerm;56831;52.380;4.744;2022-07-24T00:20:24;37.31;34.99;39.07;;
66452;Laerm;56831;52.380;4.744;2022-07-24T00:20:34;37.20;34.89;39.26;;
66452;Laerm;56831;52.380;4.744;2022-07-24T00:20:44;36.95;34.53;38.72;;
66452;Laerm;56831;52.380;4.744;2022-07-24T00:20:56;37.06;34.79;39.30;;
66452;Laerm;56831;52.380;4.744;2022-07-24T00:21:06;37.36;34.58;39.21;;
66452;Laerm;56831;52.380;4.744;2022-07-24T00:21:16;37.66;35.18;39.68;;
66452;Laerm;56831;52.380;4.744;2022-07-24T00:21:27;37.66;34.90;42.23;;
66452;Laerm;56831;52.380;4.744;2022-07-24T00:21:37;37.46;35.56;38.93;;
66452;Laerm;56831;52.380;4.744;2022-07-24T00:21:48;37.37;35.18;39.08;;
66452;Laerm;56831;52.380;4.744;2022-07-24T00:21:58;37.13;34.54;38.90;;
66452;Laerm;56831;52.380;4.744;2022-07-24T00:22:10;37.27;35.08;38.88;;
66452;Laerm;56831;52.380;4.744;2022-07-24T00:22:20;37.19;34.99;39.37;;
66452;Laerm;56831;52.380;4.744;2022-07-24T00:22:31;36.98;35.06;38.64;;
66452;Laerm;56831;52.380;4.744;2022-07-24T00:22:41;37.29;35.22;39.35;;
66452;Laerm;56831;52.380;4.744;2022-07-24T00:22:52;37.55;35.57;39.28;;
66452;Laerm;56831;52.380;4.744;2022-07-24T00:23:02;37.25;35.20;39.19;;
66452;Laerm;56831;52.380;4.744;2022-07-24T00:23:12;37.14;34.79;38.90;;
66452;Laerm;56831;52.380;4.744;2022-07-24T00:23:23;37.22;35.11;38.79;;
66452;Laerm;56831;52.380;4.744;2022-07-24T00:23:34;37.63;35.33;39.39;;
66452;Laerm;56831;52.380;4.744;2022-07-24T00:23:44;37.88;34.86;47.67;;
66452;Laerm;56831;52.380;4.744;2022-07-24T00:23:55;37.53;35.39;39.35;;
66452;Laerm;56831;52.380;4.744;2022-07-24T00:24:05;37.40;35.39;39.48;;
66452;Laerm;56831;52.380;4.744;2022-07-24T00:24:16;37.07;34.83;39.07;;
66452;Laerm;56831;52.380;4.744;2022-07-24T00:24:27;36.86;35.07;38.43;;
66452;Laerm;56831;52.380;4.744;2022-07-24T00:24:37;37.30;35.15;41.27;;
66452;Laerm;56831;52.380;4.744;2022-07-24T00:24:47;37.19;35.22;39.05;;
66452;Laerm;56831;52.380;4.744;2022-07-24T00:24:58;37.23;35.05;39.37;;
66452;Laerm;56831;52.380;4.744;2022-07-24T00:25:08;37.26;35.26;39.08;;
66452;Laerm;56831;52.380;4.744;2022-07-24T00:25:18;37.35;35.25;39.35;;
66452;Laerm;56831;52.380;4.744;2022-07-24T00:25:29;37.18;35.33;39.11;;
66452;Laerm;56831;52.380;4.744;2022-07-24T00:25:39;37.42;35.08;39.15;;
66452;Laerm;56831;52.380;4.744;2022-07-24T00:25:50;37.45;35.33;39.18;;
66452;Laerm;56831;52.380;4.744;2022-07-24T00:26:00;37.57;35.24;39.27;;
66452;Laerm;56831;52.380;4.744;2022-07-24T00:26:11;37.55;35.45;39.53;;
66452;Laerm;56831;52.380;4.744;2022-07-24T00:26:22;37.42;35.22;39.19;;
66452;Laerm;56831;52.380;4.744;2022-07-24T00:26:32;37.82;35.60;40.15;;
66452;Laerm;56831;52.380;4.744;2022-07-24T00:26:43;38.17;35.44;42.56;;
66452;Laerm;56831;52.380;4.744;2022-07-24T00:26:53;37.69;35.13;39.44;;
66452;Laerm;56831;52.380;4.744;2022-07-24T00:27:04;37.67;35.26;39.65;;
66452;Laerm;56831;52.380;4.744;2022-07-24T00:27:14;37.67;35.21;39.35;;
66452;Laerm;56831;52.380;4.744;2022-07-24T00:27:24;37.64;35.68;39.38;;
66452;Laerm;56831;52.380;4.744;2022-07-24T00:27:35;38.01;35.56;39.98;;
66452;Laerm;56831;52.380;4.744;2022-07-24T00:27:45;37.42;34.86;39.21;;
66452;Laerm;56831;52.380;4.744;2022-07-24T00:27:56;37.09;34.89;38.43;;
66452;Laerm;56831;52.380;4.744;2022-07-24T00:28:06;37.32;35.26;38.74;;
66452;Laerm;56831;52.380;4.744;2022-07-24T00:28:16;37.27;35.42;39.19;;
66452;Laerm;56831;52.380;4.744;2022-07-24T00:28:27;37.41;34.71;39.09;;
66452;Laerm;56831;52.380;4.744;2022-07-24T00:28:37;37.59;35.50;39.89;;
66452;Laerm;56831;52.380;4.744;2022-07-24T00:28:50;37.43;35.24;39.32;;
66452;Laerm;56831;52.380;4.744;2022-07-24T00:29:01;37.32;35.71;38.95;;
66452;Laerm;56831;52.380;4.744;2022-07-24T00:29:11;37.47;35.35;39.57;;
66452;Laerm;56831;52.380;4.744;2022-07-24T00:29:22;37.21;34.49;38.98;;
66452;Laerm;56831;52.380;4.744;2022-07-24T00:29:32;37.58;35.84;39.07;;
66452;Laerm;56831;52.380;4.744;2022-07-24T00:29:42;37.68;35.36;39.72;;
66452;Laerm;56831;52.380;4.744;2022-07-24T00:29:53;37.65;35.58;39.59;;
66452;Laerm;56831;52.380;4.744;2022-07-24T00:30:03;37.76;35.53;39.52;;
66452;Laerm;56831;52.380;4.744;2022-07-24T00:30:14;37.97;35.81;39.50;;
66452;Laerm;56831;52.380;4.744;2022-07-24T00:30:25;37.82;35.63;40.03;;
66452;Laerm;56831;52.380;4.744;2022-07-24T00:30:35;38.06;35.71;40.05;;
66452;Laerm;56831;52.380;4.744;2022-07-24T00:30:47;38.38;36.08;44.58;;
66452;Laerm;56831;52.380;4.744;2022-07-24T00:30:58;38.07;35.51;40.23;;
66452;Laerm;56831;52.380;4.744;2022-07-24T00:31:08;38.45;35.59;41.34;;
66452;Laerm;56831;52.380;4.744;2022-07-24T00:31:19;39.22;36.31;43.57;;
66452;Laerm;56831;52.380;4.744;2022-07-24T00:31:30;39.15;36.77;41.97;;
66452;Laerm;56831;52.380;4.744;2022-07-24T00:31:40;38.92;36.53;41.10;;
66452;Laerm;56831;52.380;4.744;2022-07-24T00:31:50;40.55;37.95;44.87;;
66452;Laerm;56831;52.380;4.744;2022-07-24T00:32:01;42.37;38.90;46.27;;
66452;Laerm;56831;52.380;4.744;2022-07-24T00:32:11;39.96;36.69;43.07;;
66452;Laerm;56831;52.380;4.744;2022-07-24T00:32:22;38.42;36.75;40.74;;
66452;Laerm;56831;52.380;4.744;2022-07-24T00:32:32;39.18;35.72;42.49;;
66452;Laerm;56831;52.380;4.744;2022-07-24T00:32:43;38.49;35.71;41.64;;
66452;Laerm;56831;52.380;4.744;2022-07-24T00:32:53;39.01;36.58;41.27;;
66452;Laerm;56831;52.380;4.744;2022-07-24T00:33:04;38.94;36.70;40.79;;
66452;Laerm;56831;52.380;4.744;2022-07-24T00:33:14;39.33;36.72;41.84;;
66452;Laerm;56831;52.380;4.744;2022-07-24T00:33:25;38.55;36.64;40.74;;
66452;Laerm;56831;52.380;4.744;2022-07-24T00:33:35;38.40;36.16;40.49;;
66452;Laerm;56831;52.380;4.744;2022-07-24T00:33:46;37.86;35.81;39.60;;
66452;Laerm;56831;52.380;4.744;2022-07-24T00:33:58;38.02;35.82;39.83;;
66452;Laerm;56831;52.380;4.744;2022-07-24T00:34:08;38.25;36.32;40.65;;
66452;Laerm;56831;52.380;4.744;2022-07-24T00:34:19;38.05;35.69;39.57;;
66452;Laerm;56831;52.380;4.744;2022-07-24T00:34:30;38.32;36.11;40.42;;
66452;Laerm;56831;52.380;4.744;2022-07-24T00:34:40;39.73;36.06;44.24;;
66452;Laerm;56831;52.380;4.744;2022-07-24T00:34:50;38.29;36.24;43.28;;
66452;Laerm;56831;52.380;4.744;2022-07-24T00:35:01;37.82;35.48;40.07;;
66452;Laerm;56831;52.380;4.744;2022-07-24T00:35:11;37.96;35.61;39.34;;
66452;Laerm;56831;52.380;4.744;2022-07-24T00:35:23;38.30;36.19;40.58;;
66452;Laerm;56831;52.380;4.744;2022-07-24T00:35:33;38.55;35.23;39.89;;
66452;Laerm;56831;52.380;4.744;2022-07-24T00:35:44;38.38;36.23;40.18;;
66452;Laerm;56831;52.380;4.744;2022-07-24T00:35:54;38.10;36.12;39.82;;
66452;Laerm;56831;52.380;4.744;2022-07-24T00:36:05;37.80;35.70;39.57;;
66452;Laerm;56831;52.380;4.744;2022-07-24T00:36:15;37.98;35.37;39.82;;
66452;Laerm;56831;52.380;4.744;2022-07-24T00:36:26;38.02;35.41;39.64;;
66452;Laerm;56831;52.380;4.744;2022-07-24T00:36:36;37.57;35.55;39.52;;
66452;Laerm;56831;52.380;4.744;2022-07-24T00:36:47;37.62;35.01;39.22;;
66452;Laerm;56831;52.380;4.744;2022-07-24T00:36:57;38.36;36.07;40.18;;
66452;Laerm;56831;52.380;4.744;2022-07-24T00:37:08;38.23;36.06;40.51;;
66452;Laerm;56831;52.380;4.744;2022-07-24T00:37:18;38.40;36.44;40.27;;
66452;Laerm;56831;52.380;4.744;2022-07-24T00:37:28;38.56;36.32;40.29;;
66452;Laerm;56831;52.380;4.744;2022-07-24T00:37:39;38.22;36.11;39.84;;
66452;Laerm;56831;52.380;4.744;2022-07-24T00:37:49;38.25;36.18;40.30;;
66452;Laerm;56831;52.380;4.744;2022-07-24T00:38:00;37.78;35.51;39.27;;
66452;Laerm;56831;52.380;4.744;2022-07-24T00:38:10;37.78;34.98;40.28;;
66452;Laerm;56831;52.380;4.744;2022-07-24T00:38:21;37.37;35.67;39.40;;
66452;Laerm;56831;52.380;4.744;2022-07-24T00:38:31;37.34;35.17;38.96;;
66452;Laerm;56831;52.380;4.744;2022-07-24T00:38:41;37.16;35.38;38.98;;
66452;Laerm;56831;52.380;4.744;2022-07-24T00:38:52;37.51;35.52;39.50;;
66452;Laerm;56831;52.380;4.744;2022-07-24T00:39:02;37.59;34.98;39.66;;
66452;Laerm;56831;52.380;4.744;2022-07-24T00:39:13;37.37;34.97;39.46;;
66452;Laerm;56831;52.380;4.744;2022-07-24T00:39:23;37.26;35.01;39.28;;
66452;Laerm;56831;52.380;4.744;2022-07-24T00:39:33;37.33;35.10;39.13;;
66452;Laerm;56831;52.380;4.744;2022-07-24T00:39:44;37.66;35.86;39.49;;
66452;Laerm;56831;52.380;4.744;2022-07-24T00:39:55;37.47;35.32;39.56;;
66452;Laerm;56831;52.380;4.744;2022-07-24T00:40:05;38.10;36.15;39.81;;
66452;Laerm;56831;52.380;4.744;2022-07-24T00:40:16;38.44;36.70;40.31;;
66452;Laerm;56831;52.380;4.744;2022-07-24T00:40:26;38.80;36.27;41.06;;
66452;Laerm;56831;52.380;4.744;2022-07-24T00:40:37;38.47;36.53;40.41;;
66452;Laerm;56831;52.380;4.744;2022-07-24T00:40:47;37.95;35.51;39.98;;
66452;Laerm;56831;52.380;4.744;2022-07-24T00:40:58;37.88;36.15;39.38;;
66452;Laerm;56831;52.380;4.744;2022-07-24T00:41:08;38.07;36.04;39.77;;
66452;Laerm;56831;52.380;4.744;2022-07-24T00:41:19;38.46;36.06;41.11;;
66452;Laerm;56831;52.380;4.744;2022-07-24T00:41:29;38.24;35.96;39.78;;
66452;Laerm;56831;52.380;4.744;2022-07-24T00:41:40;38.06;35.80;40.12;;
66452;Laerm;56831;52.380;4.744;2022-07-24T00:41:50;39.09;36.44;42.56;;
66452;Laerm;56831;52.380;4.744;2022-07-24T00:42:03;38.48;35.57;48.49;;
66452;Laerm;56831;52.380;4.744;2022-07-24T00:42:13;38.99;35.99;43.29;;
66452;Laerm;56831;52.380;4.744;2022-07-24T00:42:23;38.86;36.55;41.52;;
66452;Laerm;56831;52.380;4.744;2022-07-24T00:42:34;39.66;36.24;42.89;;
66452;Laerm;56831;52.380;4.744;2022-07-24T00:42:44;39.06;35.77;43.25;;
66452;Laerm;56831;52.380;4.744;2022-07-24T00:42:55;39.55;37.41;41.93;;
66452;Laerm;56831;52.380;4.744;2022-07-24T00:43:05;38.34;35.43;42.02;;
66452;Laerm;56831;52.380;4.744;2022-07-24T00:43:16;37.75;35.60;39.51;;
66452;Laerm;56831;52.380;4.744;2022-07-24T00:43:27;37.74;34.90;39.48;;
66452;Laerm;56831;52.380;4.744;2022-07-24T00:44:10;38.65;35.76;42.81;;
66452;Laerm;56831;52.380;4.744;2022-07-24T00:44:20;37.46;34.71;39.86;;
66452;Laerm;56831;52.380;4.744;2022-07-24T00:44:31;38.04;35.57;49.80;;
66452;Laerm;56831;52.380;4.744;2022-07-24T00:44:41;37.58;35.16;39.45;;
66452;Laerm;56831;52.380;4.744;2022-07-24T00:44:51;37.31;34.58;39.36;;
66452;Laerm;56831;52.380;4.744;2022-07-24T00:45:02;37.13;34.82;39.09;;
66452;Laerm;56831;52.380;4.744;2022-07-24T00:45:13;37.20;34.33;39.14;;
66452;Laerm;56831;52.380;4.744;2022-07-24T00:45:23;37.45;35.58;39.89;;
66452;Laerm;56831;52.380;4.744;2022-07-24T00:45:34;38.53;35.09;47.14;;
66452;Laerm;56831;52.380;4.744;2022-07-24T00:45:44;37.48;35.36;39.58;;
66452;Laerm;56831;52.380;4.744;2022-07-24T00:45:55;37.13;34.17;39.48;;
66452;Laerm;56831;52.380;4.744;2022-07-24T00:46:05;37.81;35.02;41.89;;
66452;Laerm;56831;52.380;4.744;2022-07-24T00:46:18;36.97;34.25;39.26;;
66452;Laerm;56831;52.380;4.744;2022-07-24T00:46:28;37.13;34.53;40.43;;
66452;Laerm;56831;52.380;4.744;2022-07-24T00:46:40;37.06;34.75;38.88;;
66452;Laerm;56831;52.380;4.744;2022-07-24T00:46:50;37.21;34.87;42.73;;
66452;Laerm;56831;52.380;4.744;2022-07-24T00:47:01;46.05;34.74;64.03;;
66452;Laerm;56831;52.380;4.744;2022-07-24T00:47:11;37.68;35.36;45.90;;
66452;Laerm;56831;52.380;4.744;2022-07-24T00:47:21;36.64;34.12;38.59;;
66452;Laerm;56831;52.380;4.744;2022-07-24T00:47:32;36.98;34.64;38.64;;
66452;Laerm;56831;52.380;4.744;2022-07-24T00:47:42;36.98;34.60;38.67;;
66452;Laerm;56831;52.380;4.744;2022-07-24T00:47:53;36.85;33.68;38.40;;
66452;Laerm;56831;52.380;4.744;2022-07-24T00:48:03;37.11;34.95;38.90;;
66452;Laerm;56831;52.380;4.744;2022-07-24T00:48:15;37.19;35.12;39.37;;
66452;Laerm;56831;52.380;4.744;2022-07-24T00:48:26;36.85;35.00;39.02;;
66452;Laerm;56831;52.380;4.744;2022-07-24T00:48:36;36.78;34.36;39.02;;
66452;Laerm;56831;52.380;4.744;2022-07-24T00:48:47;37.31;35.31;39.51;;
66452;Laerm;56831;52.380;4.744;2022-07-24T00:48:57;39.35;34.84;51.52;;
66452;Laerm;56831;52.380;4.744;2022-07-24T00:49:09;37.65;34.85;46.32;;
66452;Laerm;56831;52.380;4.744;2022-07-24T00:49:20;44.89;34.73;58.70;;
66452;Laerm;56831;52.380;4.744;2022-07-24T00:49:30;38.20;35.16;45.06;;
66452;Laerm;56831;52.380;4.744;2022-07-24T00:49:41;38.80;35.37;49.71;;
66452;Laerm;56831;52.380;4.744;2022-07-24T00:49:51;38.81;36.03;43.86;;
66452;Laerm;56831;52.380;4.744;2022-07-24T00:50:02;38.21;35.27;40.82;;
66452;Laerm;56831;52.380;4.744;2022-07-24T00:50:14;37.90;35.38;41.95;;
66452;Laerm;56831;52.380;4.744;2022-07-24T00:50:24;37.38;35.52;39.81;;
66452;Laerm;56831;52.380;4.744;2022-07-24T00:50:36;37.60;35.48;39.77;;
66452;Laerm;56831;52.380;4.744;2022-07-24T00:50:46;37.85;35.59;39.71;;
66452;Laerm;56831;52.380;4.744;2022-07-24T00:50:57;37.25;35.00;41.15;;
66452;Laerm;56831;52.380;4.744;2022-07-24T00:51:08;37.07;34.09;38.86;;
66452;Laerm;56831;52.380;4.744;2022-07-24T00:51:18;37.65;35.26;39.81;;
66452;Laerm;56831;52.380;4.744;2022-07-24T00:51:28;37.69;35.20;40.05;;
66452;Laerm;56831;52.380;4.744;2022-07-24T00:51:40;37.18;35.04;39.14;;
66452;Laerm;56831;52.380;4.744;2022-07-24T00:51:51;37.34;34.59;42.74;;
66452;Laerm;56831;52.380;4.744;2022-07-24T00:52:01;37.79;35.31;39.93;;
66452;Laerm;56831;52.380;4.744;2022-07-24T00:52:12;38.00;35.27;40.36;;
66452;Laerm;56831;52.380;4.744;2022-07-24T00:52:22;36.77;33.98;38.46;;
66452;Laerm;56831;52.380;4.744;2022-07-24T00:52:33;36.95;34.49;38.80;;
66452;Laerm;56831;52.380;4.744;2022-07-24T00:52:44;37.66;35.67;40.07;;
66452;Laerm;56831;52.380;4.744;2022-07-24T00:52:55;37.65;35.21;40.87;;
66452;Laerm;56831;52.380;4.744;2022-07-24T00:53:05;37.47;35.21;39.32;;
66452;Laerm;56831;52.380;4.744;2022-07-24T00:53:17;37.85;35.62;40.44;;
66452;Laerm;56831;52.380;4.744;2022-07-24T00:53:29;37.51;35.31;39.89;;
66452;Laerm;56831;52.380;4.744;2022-07-24T00:53:39;37.80;35.54;39.79;;
66452;Laerm;56831;52.380;4.744;2022-07-24T00:53:50;38.50;35.37;41.35;;
66452;Laerm;56831;52.380;4.744;2022-07-24T00:54:06;37.95;35.64;40.54;;
66452;Laerm;56831;52.380;4.744;2022-07-24T00:54:17;37.75;34.64;39.77;;
66452;Laerm;56831;52.380;4.744;2022-07-24T00:54:27;37.40;35.05;41.04;;
66452;Laerm;56831;52.380;4.744;2022-07-24T00:54:39;37.09;34.40;39.48;;
66452;Laerm;56831;52.380;4.744;2022-07-24T00:54:49;37.40;34.92;39.52;;
66452;Laerm;56831;52.380;4.744;2022-07-24T00:55:00;37.27;35.08;38.93;;
66452;Laerm;56831;52.380;4.744;2022-07-24T00:55:11;37.12;34.87;39.22;;
66452;Laerm;56831;52.380;4.744;2022-07-24T00:55:21;37.31;35.18;39.12;;
66452;Laerm;56831;52.380;4.744;2022-07-24T00:55:32;40.09;35.78;43.86;;
66452;Laerm;56831;52.380;4.744;2022-07-24T00:55:43;37.62;35.65;39.16;;
66452;Laerm;56831;52.380;4.744;2022-07-24T00:55:53;37.72;35.43;39.72;;
66452;Laerm;56831;52.380;4.744;2022-07-24T00:56:04;39.11;35.71;41.92;;
66452;Laerm;56831;52.380;4.744;2022-07-24T00:56:14;38.09;35.66;40.64;;
66452;Laerm;56831;52.380;4.744;2022-07-24T00:56:25;38.21;35.78;41.74;;
66452;Laerm;56831;52.380;4.744;2022-07-24T00:56:36;37.54;35.23;39.63;;
66452;Laerm;56831;52.380;4.744;2022-07-24T00:56:47;37.10;34.92;39.09;;
66452;Laerm;56831;52.380;4.744;2022-07-24T00:56:58;37.53;35.26;40.95;;
66452;Laerm;56831;52.380;4.744;2022-07-24T00:57:08;36.90;35.02;38.73;;
66452;Laerm;56831;52.380;4.744;2022-07-24T00:57:18;37.03;34.90;38.67;;
66452;Laerm;56831;52.380;4.744;2022-07-24T00:57:29;37.18;34.80;39.38;;
66452;Laerm;56831;52.380;4.744;2022-07-24T00:57:39;37.02;34.98;38.71;;
66452;Laerm;56831;52.380;4.744;2022-07-24T00:57:53;37.14;34.91;39.66;;
66452;Laerm;56831;52.380;4.744;2022-07-24T00:58:04;37.27;34.92;40.88;;
66452;Laerm;56831;52.380;4.744;2022-07-24T00:58:14;37.64;35.51;39.69;;
66452;Laerm;56831;52.380;4.744;2022-07-24T00:58:25;37.26;34.98;39.11;;
66452;Laerm;56831;52.380;4.744;2022-07-24T00:58:35;37.77;35.33;40.47;;
66452;Laerm;56831;52.380;4.744;2022-07-24T00:58:46;37.19;34.96;38.91;;
66452;Laerm;56831;52.380;4.744;2022-07-24T00:58:57;37.45;35.38;39.38;;
66452;Laerm;56831;52.380;4.744;2022-07-24T00:59:09;36.92;34.50;39.24;;
66452;Laerm;56831;52.380;4.744;2022-07-24T00:59:20;36.87;34.62;38.88;;
66452;Laerm;56831;52.380;4.744;2022-07-24T00:59:30;37.26;34.77;41.53;;
66452;Laerm;56831;52.380;4.744;2022-07-24T00:59:40;36.76;34.57;39.00;;
66452;Laerm;56831;52.380;4.744;2022-07-24T00:59:51;37.19;35.37;39.02;;